Time;durP1;ratioP1;P1;durP2;ratioP2;P2;SDS_P1;SDS_P2;PMS_P1;PMS_P2;Temp;Humidity;BMP_temperature;BMP_pressure;BME280_temperature;BME280_humidity;BME280_pressure;Samples;Min_cycle;Max_cycle;Signal;HPM_P1;HPM_P2
2023/04/12 00:00:41;;;;;;;;;5.00;3.00;;;;;12.79;71.81;99851.41;2097162;28;46910;-62
2023/04/12 00:01:41;;;;;;;;;7.00;5.00;;;;;12.80;71.70;99857.59;2091221;28;46383;-59
2023/04/12 00:02:43;;;;;;;;;3.50;3.50;;;;;12.80;71.79;99854.94;2096611;28;46602;-60
2023/04/12 00:03:49;;;;;;;;;4.40;4.40;;;;;12.81;71.67;99851.34;2098481;28;45701;-61
2023/04/12 00:04:54;;;;;;;;;3.00;3.00;;;;;12.82;71.71;99861.91;2096675;28;46600;-61
2023/04/12 00:05:54;;;;;;;;;4.60;4.00;;;;;12.80;72.55;99842.50;2097546;28;46370;-62
2023/04/12 00:06:55;;;;;;;;;3.00;3.00;;;;;12.79;71.87;99846.09;2098853;28;46504;-60
2023/04/12 00:07:57;;;;;;;;;5.75;3.25;;;;;12.79;72.17;99846.09;2103580;28;46393;-61
2023/04/12 00:08:58;;;;;;;;;5.80;5.40;;;;;12.79;71.99;99840.75;2092620;28;46956;-61
2023/04/12 00:09:59;;;;;;;;;3.40;3.20;;;;;12.80;71.87;99837.16;2094083;28;45885;-62
2023/04/12 00:11:01;;;;;;;;;4.00;4.00;;;;;12.80;71.93;99834.50;2096763;28;46265;-62
2023/04/12 00:12:03;;;;;;;;;5.20;4.00;;;;;12.81;71.86;99830.91;2090193;28;45824;-60
2023/04/12 00:13:03;;;;;;;;;5.00;5.00;;;;;12.82;71.40;99835.28;2088039;28;46329;-61
2023/04/12 00:14:04;;;;;;;;;4.00;3.50;;;;;12.82;71.76;99835.28;2096886;28;46498;-61
2023/04/12 00:15:05;;;;;;;;;5.00;4.50;;;;;12.83;71.92;99822.84;2088105;28;46361;-60
2023/04/12 00:16:06;;;;;;;;;4.80;3.40;;;;;12.83;71.78;99829.06;2076993;28;46400;-59
2023/04/12 00:17:06;;;;;;;;;3.75;3.75;;;;;12.83;72.32;99821.06;2073740;28;46255;-59
2023/04/12 00:18:06;;;;;;;;;5.25;4.00;;;;;12.83;71.98;99828.16;2088014;28;46834;-61
2023/04/12 00:19:07;;;;;;;;;1.50;1.50;;;;;12.83;71.76;99826.41;2096738;28;46254;-59
2023/04/12 00:20:12;;;;;;;;;4.50;3.75;;;;;12.82;72.13;99818.47;2097356;28;46564;-60
2023/04/12 00:21:16;;;;;;;;;4.20;4.20;;;;;12.84;72.05;99824.59;2079017;28;46968;-60
2023/04/12 00:22:17;;;;;;;;;3.40;3.40;;;;;12.85;72.42;99818.34;2080382;28;46619;-60
2023/04/12 00:23:17;;;;;;;;;4.00;4.00;;;;;12.85;72.49;99813.88;2099361;28;44975;-60
2023/04/12 00:24:18;;;;;;;;;4.00;4.00;;;;;12.84;72.24;99814.81;2096461;28;46257;-60
2023/04/12 00:25:18;;;;;;;;;3.50;3.50;;;;;12.84;72.18;99820.16;2089602;28;46859;-60
2023/04/12 00:26:20;;;;;;;;;6.75;5.00;;;;;12.85;71.68;99813.03;2096965;28;46497;-60
2023/04/12 00:27:21;;;;;;;;;4.60;3.60;;;;;12.85;71.91;99818.34;2096628;28;46637;-59
2023/04/12 00:28:21;;;;;;;;;3.00;3.00;;;;;12.85;72.01;99805.03;2097118;28;46145;-60
2023/04/12 00:29:21;;;;;;;;;5.25;5.25;;;;;12.85;72.30;99813.03;2096369;28;46509;-60
2023/04/12 00:30:22;;;;;;;;;5.00;5.00;;;;;12.84;71.87;99803.31;2096296;28;46641;-59
2023/04/12 00:31:22;;;;;;;;;3.75;3.25;;;;;12.82;72.39;99790.03;2096690;28;46854;-59
2023/04/12 00:32:23;;;;;;;;;4.00;4.00;;;;;12.82;72.12;99794.50;2096680;28;46748;-60
2023/04/12 00:33:23;;;;;;;;;4.75;3.75;;;;;12.81;72.37;99793.63;2099047;28;46167;-59
2023/04/12 00:34:23;;;;;;;;;5.00;4.00;;;;;12.82;72.29;99794.50;2105018;28;45624;-59
2023/04/12 00:35:23;;;;;;;;;4.25;4.25;;;;;12.84;72.60;99790.00;2096685;28;46566;-61
2023/04/12 00:36:24;;;;;;;;;4.00;3.00;;;;;12.83;72.74;99796.22;2087916;28;46268;-59
2023/04/12 00:37:24;;;;;;;;;4.00;4.00;;;;;12.82;72.83;99782.03;2087789;28;46377;-61
2023/04/12 00:38:25;;;;;;;;;5.25;4.00;;;;;12.81;72.63;99768.81;2098523;28;46384;-59
2023/04/12 00:39:25;;;;;;;;;5.00;4.00;;;;;12.81;72.98;99777.66;2096481;28;46335;-60
2023/04/12 00:40:25;;;;;;;;;2.50;2.50;;;;;12.81;72.95;99777.66;2096885;28;46202;-61
2023/04/12 00:41:26;;;;;;;;;5.25;4.25;;;;;12.82;73.17;99771.41;2096475;28;46908;-59
2023/04/12 00:42:26;;;;;;;;;4.00;4.00;;;;;12.82;72.71;99779.38;2096939;28;46507;-62
2023/04/12 00:43:27;;;;;;;;;4.50;4.50;;;;;12.82;73.20;99783.84;2096474;28;46491;-61
2023/04/12 00:44:27;;;;;;;;;4.40;4.40;;;;;12.81;72.90;99766.16;2091084;28;45576;-59
2023/04/12 00:45:28;;;;;;;;;4.00;4.00;;;;;12.80;72.91;99773.28;2096549;28;45964;-60
2023/04/12 00:46:28;;;;;;;;;3.75;3.75;;;;;12.80;72.54;99759.97;2096853;28;45868;-61
2023/04/12 00:47:29;;;;;;;;;3.00;3.00;;;;;12.80;72.82;99762.63;2096543;28;46695;-60
2023/04/12 00:48:30;;;;;;;;;3.75;3.75;;;;;12.80;72.90;99770.59;2096919;28;46565;-60
2023/04/12 00:49:32;;;;;;;;;4.00;3.75;;;;;12.79;73.03;99765.34;2096848;28;46696;-60
2023/04/12 00:50:35;;;;;;;;;4.80;3.20;;;;;12.79;72.49;99762.69;2096608;28;46636;-60
2023/04/12 00:51:36;;;;;;;;;4.60;3.40;;;;;12.79;72.61;99758.22;2098417;28;46371;-60
2023/04/12 00:52:38;;;;;;;;;3.50;3.50;;;;;12.81;72.54;99752.84;2097315;28;46797;-60
2023/04/12 00:53:39;;;;;;;;;2.80;2.80;;;;;12.82;72.84;99746.56;2096580;28;46983;-61
2023/04/12 00:54:42;;;;;;;;;4.20;3.40;;;;;12.82;72.64;99747.44;2097098;28;46568;-61
2023/04/12 00:55:43;;;;;;;;;5.00;3.60;;;;;12.84;72.75;99747.38;2096714;28;46296;-60
2023/04/12 00:56:46;;;;;;;;;1.40;1.40;;;;;12.84;72.58;99736.75;2096658;28;46286;-60
2023/04/12 00:57:46;;;;;;;;;5.00;5.00;;;;;12.84;72.96;99742.06;2097116;28;45240;-62
2023/04/12 00:58:46;;;;;;;;;3.00;3.00;;;;;12.85;72.62;99733.13;2096115;28;46185;-61
2023/04/12 00:59:47;;;;;;;;;4.50;4.50;;;;;12.86;72.76;99737.53;2095839;28;46653;-62
2023/04/12 01:00:51;;;;;;;;;5.75;5.50;;;;;12.84;73.13;99721.63;2096594;28;46745;-61
2023/04/12 01:01:54;;;;;;;;;3.40;3.40;;;;;12.85;72.75;99727.81;2096752;28;46392;-61
2023/04/12 01:02:55;;;;;;;;;4.60;3.20;;;;;12.85;73.08;99719.81;2096244;28;46438;-61
2023/04/12 01:03:59;;;;;;;;;3.60;3.60;;;;;12.84;72.87;99729.63;2088028;28;45193;-60
2023/04/12 01:05:01;;;;;;;;;2.60;2.60;;;;;12.84;73.21;99729.63;2088328;28;46716;-59
2023/04/12 01:06:20;;;;;;;;;3.40;3.40;;;;;12.84;72.94;99732.28;2097299;28;46571;-60
2023/04/12 01:07:27;;;;;;;;;3.60;3.60;;;;;12.83;73.15;99733.22;2096831;28;46661;-60
2023/04/12 01:08:52;;;;;;;;;3.00;3.00;;;;;12.83;72.90;99724.31;2096624;28;46197;-60
2023/04/12 01:10:14;;;;;;;;;6.20;4.40;;;;;12.81;72.92;99713.75;2087728;28;46378;-61
2023/04/12 01:11:25;;;;;;;;;3.20;3.00;;;;;12.82;73.55;99688.84;2092528;28;46791;-60
2023/04/12 01:12:45;;;;;;;;;2.00;2.00;;;;;12.81;72.91;99684.47;2096139;28;46309;-59
2023/04/12 01:14:19;;;;;;;;;3.40;2.80;;;;;12.82;72.88;99677.34;2096361;28;46660;-60
2023/04/12 01:15:23;;;;;;;;;2.80;2.80;;;;;12.82;73.26;99680.88;2070410;28;46711;-62
2023/04/12 01:16:39;;;;;;;;;2.60;2.60;;;;;12.83;72.67;99674.63;2071199;28;45073;-61
2023/04/12 01:17:58;;;;;;;;;4.20;4.20;;;;;12.84;73.26;99675.50;2057728;28;45134;-61
2023/04/12 01:19:03;;;;;;;;;5.00;4.00;;;;;12.84;72.80;99672.84;2070839;28;45687;-60
2023/04/12 01:20:15;;;;;;;;;4.80;4.80;;;;;12.84;72.86;99670.16;2070681;28;46383;-61
2023/04/12 01:21:24;;;;;;;;;3.60;3.60;;;;;12.83;72.97;99664.00;2066262;28;46546;-60
2023/04/12 01:22:42;;;;;;;;;4.40;3.00;;;;;12.83;72.89;99665.75;2062773;28;46900;-61
2023/04/12 01:23:56;;;;;;;;;3.20;3.00;;;;;12.83;73.48;99663.09;2056840;28;46421;-63
2023/04/12 01:25:21;;;;;;;;;3.20;3.20;;;;;12.84;73.23;99670.16;2056320;28;46433;-61
2023/04/12 01:26:33;;;;;;;;;5.00;4.20;;;;;12.83;72.71;99668.41;2069455;28;45521;-59
2023/04/12 01:27:43;;;;;;;;;4.00;3.20;;;;;12.84;72.82;99665.72;2058838;28;46528;-60
2023/04/12 01:28:44;;;;;;;;;2.20;2.20;;;;;12.86;72.96;99666.50;2057780;28;46909;-59
2023/04/12 01:29:48;;;;;;;;;3.40;3.20;;;;;12.88;72.80;99666.41;2069092;28;46402;-61
2023/04/12 01:30:53;;;;;;;;;2.60;2.60;;;;;12.88;72.97;99658.44;2055361;28;46002;-62
2023/04/12 01:31:57;;;;;;;;;5.60;5.60;;;;;12.89;72.78;99645.03;2060044;28;46520;-60
2023/04/12 01:33:00;;;;;;;;;4.80;3.00;;;;;12.88;72.90;99661.94;2069822;28;46480;-59
2023/04/12 01:34:03;;;;;;;;;3.20;3.20;;;;;12.88;72.73;99658.44;2054605;28;46433;-59
2023/04/12 01:35:07;;;;;;;;;3.20;3.20;;;;;12.88;72.88;99651.31;2055468;28;46527;-59
2023/04/12 01:36:16;;;;;;;;;4.00;2.40;;;;;12.89;72.64;99652.16;2062602;28;45959;-60
2023/04/12 01:37:19;;;;;;;;;3.00;3.00;;;;;12.89;72.85;99652.16;2062235;28;46490;-61
2023/04/12 01:38:20;;;;;;;;;5.00;4.00;;;;;12.89;72.86;99647.69;2062347;28;46815;-60
2023/04/12 01:39:20;;;;;;;;;2.20;2.20;;;;;12.89;72.94;99636.19;2062460;28;46375;-60
2023/04/12 01:40:21;;;;;;;;;4.00;1.75;;;;;12.88;72.62;99642.44;2064193;28;46787;-59
2023/04/12 01:41:21;;;;;;;;;5.75;3.00;;;;;12.87;73.29;99627.41;2067171;28;46061;-60
2023/04/12 01:42:22;;;;;;;;;5.75;5.75;;;;;12.87;73.26;99624.75;2062038;28;46098;-60
2023/04/12 01:43:22;;;;;;;;;3.75;2.50;;;;;12.86;73.49;99629.22;2054225;28;46607;-59
2023/04/12 01:44:24;;;;;;;;;4.50;4.50;;;;;12.84;73.46;99628.44;2054118;28;46439;-60
2023/04/12 01:45:26;;;;;;;;;3.00;3.00;;;;;12.83;73.34;99618.72;2062383;28;46836;-60
2023/04/12 01:46:26;;;;;;;;;5.80;3.00;;;;;12.83;73.27;99626.72;2066790;28;46637;-60
2023/04/12 01:47:27;;;;;;;;;3.50;3.50;;;;;12.84;73.00;99633.75;2070411;28;46834;-60
2023/04/12 01:48:27;;;;;;;;;3.25;2.75;;;;;12.83;73.61;99626.72;2054663;28;46487;-59
2023/04/12 01:49:39;;;;;;;;;2.75;2.75;;;;;12.83;73.26;99629.38;2054089;28;46361;-60
2023/04/12 01:50:52;;;;;;;;;4.20;3.20;;;;;12.84;73.43;99619.59;2063447;28;46688;-60
2023/04/12 01:52:11;;;;;;;;;2.60;2.60;;;;;12.83;73.23;99610.75;2063442;28;46457;-60
2023/04/12 01:53:22;;;;;;;;;2.20;2.20;;;;;12.84;73.29;99611.59;2094580;28;46324;-60
2023/04/12 01:54:35;;;;;;;;;3.00;2.00;;;;;12.85;73.43;99615.97;2088017;28;46344;-59
2023/04/12 01:55:38;;;;;;;;;4.80;4.80;;;;;12.85;73.73;99605.34;2089380;28;45335;-60
2023/04/12 01:56:43;;;;;;;;;5.00;2.40;;;;;12.83;73.16;99597.44;2095921;28;46720;-60
2023/04/12 01:57:44;;;;;;;;;3.00;3.00;;;;;12.85;73.29;99602.66;2079145;28;46945;-61
2023/04/12 01:58:47;;;;;;;;;2.60;1.80;;;;;12.85;73.39;99606.19;2078763;28;45822;-59
2023/04/12 01:59:50;;;;;;;;;2.40;2.40;;;;;12.86;73.47;99607.91;2082400;28;46549;-59
2023/04/12 02:00:52;;;;;;;;;1.00;1.00;;;;;12.87;73.25;99603.47;2079317;28;46841;-61
2023/04/12 02:01:53;;;;;;;;;4.20;3.20;;;;;12.88;73.36;99599.84;2081865;28;47831;-61
2023/04/12 02:02:54;;;;;;;;;4.50;4.00;;;;;12.89;73.27;99599.78;2078193;28;46549;-61
2023/04/12 02:03:58;;;;;;;;;5.00;4.00;;;;;12.89;73.28;99591.78;2070637;28;45539;-59
2023/04/12 02:04:59;;;;;;;;;3.40;2.80;;;;;12.91;73.07;99589.03;2070900;28;46150;-60
2023/04/12 02:06:02;;;;;;;;;5.80;3.80;;;;;12.93;73.40;99587.16;2078714;28;46607;-59
2023/04/12 02:07:03;;;;;;;;;5.60;5.20;;;;;12.93;73.38;99587.16;2078263;28;46734;-61
2023/04/12 02:08:04;;;;;;;;;6.00;5.00;;;;;12.93;73.51;99585.34;2078888;28;47072;-61
2023/04/12 02:09:05;;;;;;;;;4.20;4.00;;;;;12.93;73.52;99581.84;2080948;28;45684;-60
2023/04/12 02:10:05;;;;;;;;;2.75;2.75;;;;;12.93;73.61;99597.81;2080561;28;46616;-60
2023/04/12 02:11:13;;;;;;;;;4.00;4.00;;;;;12.90;73.59;99576.66;2082284;28;46544;-62
2023/04/12 02:12:14;;;;;;;;;3.40;3.00;;;;;12.89;73.71;99574.94;2079223;28;45813;-60
2023/04/12 02:13:16;;;;;;;;;3.50;3.00;;;;;12.89;73.36;99580.28;2078573;28;46000;-61
2023/04/12 02:14:18;;;;;;;;;4.20;3.20;;;;;12.88;73.36;99575.88;2082097;28;46779;-59
2023/04/12 02:15:20;;;;;;;;;4.20;4.20;;;;;12.87;73.87;99569.69;2078915;28;45687;-61
2023/04/12 02:16:21;;;;;;;;;3.40;3.40;;;;;12.88;73.61;99570.56;2075323;28;46654;-60
2023/04/12 02:17:22;;;;;;;;;3.20;3.20;;;;;12.87;73.93;99563.50;2082157;28;46946;-60
2023/04/12 02:18:23;;;;;;;;;4.00;3.00;;;;;12.87;73.71;99572.38;2078627;28;46431;-61
2023/04/12 02:19:23;;;;;;;;;3.60;3.60;;;;;12.87;73.68;99561.72;2084867;28;45135;-61
2023/04/12 02:20:25;;;;;;;;;3.50;3.50;;;;;12.87;73.40;99567.03;2086996;28;46763;-61
2023/04/12 02:21:26;;;;;;;;;2.40;2.00;;;;;12.87;73.57;99556.38;2085883;28;46339;-60
2023/04/12 02:22:26;;;;;;;;;4.80;3.80;;;;;12.89;73.46;99551.84;2082364;28;46991;-61
2023/04/12 02:23:27;;;;;;;;;3.00;3.00;;;;;12.90;73.52;99553.56;2083614;28;46772;-60
2023/04/12 02:24:27;;;;;;;;;5.00;3.00;;;;;12.90;73.96;99552.72;2078515;28;46215;-60
2023/04/12 02:25:27;;;;;;;;;3.50;3.50;;;;;12.90;73.85;99544.72;2078235;28;46654;-61
2023/04/12 02:26:28;;;;;;;;;2.00;2.00;;;;;12.91;73.65;99538.44;2078858;28;46796;-59
2023/04/12 02:27:28;;;;;;;;;5.50;4.25;;;;;12.92;73.51;99538.38;2077775;28;45586;-59
2023/04/12 02:28:28;;;;;;;;;2.00;2.00;;;;;12.91;73.97;99547.31;2078292;28;46736;-59
2023/04/12 02:29:30;;;;;;;;;4.00;3.33;;;;;12.90;73.94;99532.25;2087498;28;46261;-58
2023/04/12 02:30:30;;;;;;;;;4.00;2.75;;;;;12.91;73.85;99528.66;2095808;28;46706;-60
2023/04/12 02:31:31;;;;;;;;;4.75;4.75;;;;;12.93;73.98;99532.09;2096097;28;46697;-59
2023/04/12 02:32:32;;;;;;;;;3.40;3.00;;;;;12.94;74.33;99524.97;2078178;28;46522;-60
2023/04/12 02:33:33;;;;;;;;;3.75;3.75;;;;;12.94;74.40;99525.84;2073320;28;46377;-59
2023/04/12 02:34:35;;;;;;;;;3.00;2.25;;;;;12.95;74.24;99532.03;2070788;28;46786;-59
2023/04/12 02:35:35;;;;;;;;;2.60;2.60;;;;;12.95;74.27;99524.03;2079006;28;46924;-59
2023/04/12 02:36:36;;;;;;;;;4.00;2.67;;;;;12.93;74.17;99524.13;2078344;28;46051;-60
2023/04/12 02:37:37;;;;;;;;;1.50;1.50;;;;;12.95;74.14;99518.72;2078190;28;46330;-59
2023/04/12 02:38:37;;;;;;;;;4.00;3.00;;;;;12.94;74.10;99519.66;2079215;28;46711;-60
2023/04/12 02:39:37;;;;;;;;;2.75;2.75;;;;;12.95;73.91;99521.38;2079060;28;46697;-59
2023/04/12 02:40:41;;;;;;;;;3.00;3.00;;;;;12.95;73.93;99514.25;2078846;28;45839;-61
2023/04/12 02:41:42;;;;;;;;;2.25;2.25;;;;;12.96;73.99;99513.34;2082924;28;46234;-59
2023/04/12 02:42:43;;;;;;;;;2.00;2.00;;;;;12.98;74.11;99510.59;2078779;28;45873;-59
2023/04/12 02:43:43;;;;;;;;;2.00;2.00;;;;;12.97;74.25;99508.88;2082300;28;46628;-60
2023/04/12 02:44:46;;;;;;;;;3.00;3.00;;;;;13.00;74.08;99502.50;2076661;28;45577;-60
2023/04/12 02:45:47;;;;;;;;;4.80;4.80;;;;;13.00;74.13;99506.03;2076289;28;46403;-60
2023/04/12 02:46:47;;;;;;;;;3.00;2.50;;;;;13.01;74.23;99494.44;2078192;28;45854;-61
2023/04/12 02:47:48;;;;;;;;;5.00;3.25;;;;;13.01;74.22;99494.44;2078675;28;45761;-59
2023/04/12 02:48:49;;;;;;;;;4.50;2.50;;;;;13.02;74.44;99495.31;2078023;28;46330;-61
2023/04/12 02:49:49;;;;;;;;;2.25;2.25;;;;;13.01;74.32;99498.91;2078459;28;46313;-61
2023/04/12 02:50:49;;;;;;;;;3.25;3.25;;;;;13.00;74.53;99476.75;2078803;28;46538;-61
2023/04/12 02:51:50;;;;;;;;;2.00;2.00;;;;;13.02;73.94;99488.19;2079096;28;45244;-61
2023/04/12 02:52:50;;;;;;;;;3.00;2.00;;;;;13.01;73.91;99486.47;2079456;28;46380;-60
2023/04/12 02:53:50;;;;;;;;;3.00;3.00;;;;;13.02;74.18;99477.53;2079891;28;46559;-62
2023/04/12 02:54:51;;;;;;;;;6.50;4.00;;;;;13.03;74.27;99481.03;2081961;28;46216;-62
2023/04/12 02:55:51;;;;;;;;;5.33;2.67;;;;;13.02;74.47;99477.53;2079716;28;46744;-62
2023/04/12 02:56:52;;;;;;;;;2.25;1.75;;;;;13.03;74.28;99476.59;2079703;28;46505;-61
2023/04/12 02:57:52;;;;;;;;;2.50;1.00;;;;;13.04;73.98;99477.44;2081529;28;46287;-61
2023/04/12 02:58:52;;;;;;;;;2.00;2.00;;;;;13.03;73.59;99473.91;2079843;28;46177;-62
2023/04/12 02:59:53;;;;;;;;;1.75;1.75;;;;;13.04;74.16;99493.41;2081844;28;46214;-62
2023/04/12 03:00:53;;;;;;;;;3.00;3.00;;;;;13.05;73.89;99473.84;2079831;28;46216;-62
2023/04/12 03:01:54;;;;;;;;;3.00;3.00;;;;;13.04;74.00;99477.44;2087832;28;46240;-61
2023/04/12 03:02:54;;;;;;;;;1.00;1.00;;;;;13.03;74.39;99462.41;2085122;28;46311;-61
2023/04/12 03:03:55;;;;;;;;;4.75;3.25;;;;;13.05;74.51;99476.50;2082349;28;46743;-60
2023/04/12 03:04:55;;;;;;;;;1.00;1.00;;;;;13.04;74.58;99464.97;2097263;28;46225;-61
2023/04/12 03:05:57;;;;;;;;;2.00;2.00;;;;;13.06;74.96;99470.22;2097308;28;46718;-60
2023/04/12 03:06:57;;;;;;;;;4.00;2.80;;;;;13.06;74.78;99473.75;2097273;28;46890;-61
2023/04/12 03:07:58;;;;;;;;;4.75;4.75;;;;;13.07;74.71;99464.81;2087488;28;45761;-60
2023/04/12 03:08:58;;;;;;;;;3.00;3.00;;;;;13.08;74.75;99466.53;2088079;28;46519;-63
2023/04/12 03:09:58;;;;;;;;;3.75;2.00;;;;;13.09;75.03;99464.75;2088182;28;45191;-61
2023/04/12 03:10:59;;;;;;;;;1.67;1.00;;;;;13.08;75.27;99471.00;2089645;28;46315;-61
2023/04/12 03:12:00;;;;;;;;;2.50;2.00;;;;;13.08;75.07;99463.00;2096496;28;46748;-61
2023/04/12 03:13:01;;;;;;;;;1.00;1.00;;;;;13.08;74.84;99469.19;2084778;28;46948;-61
2023/04/12 03:14:01;;;;;;;;;1.75;1.75;;;;;13.07;74.51;99462.16;2088547;28;46308;-60
2023/04/12 03:15:02;;;;;;;;;1.50;1.50;;;;;13.07;74.55;99462.16;2087841;28;46797;-61
2023/04/12 03:16:23;;;;;;;;;5.00;3.00;;;;;13.09;74.91;99464.75;2087960;28;46995;-61
2023/04/12 03:17:24;;;;;;;;;2.20;2.00;;;;;13.09;74.91;99464.75;2089033;28;46999;-61
2023/04/12 03:18:24;;;;;;;;;2.75;2.75;;;;;13.09;74.76;99462.97;2087567;28;46315;-60
2023/04/12 03:19:25;;;;;;;;;0.00;0.00;;;;;13.11;75.06;99461.06;2088123;28;46748;-60
2023/04/12 03:20:27;;;;;;;;;2.67;2.67;;;;;13.14;74.73;99470.69;2088170;28;46732;-61
2023/04/12 03:21:27;;;;;;;;;4.00;3.20;;;;;13.16;74.68;99469.69;2087901;28;46351;-61
2023/04/12 03:22:28;;;;;;;;;2.75;2.75;;;;;13.17;74.63;99479.38;2087955;28;46527;-62
2023/04/12 03:23:28;;;;;;;;;0.25;0.25;;;;;13.19;74.58;99485.53;2087760;28;46315;-61
2023/04/12 03:24:33;;;;;;;;;3.00;3.00;;;;;13.20;74.18;99484.59;2087889;28;46687;-61
2023/04/12 03:25:33;;;;;;;;;2.00;2.00;;;;;13.21;74.41;99493.44;2087811;28;46534;-61
2023/04/12 03:26:34;;;;;;;;;2.00;2.00;;;;;13.22;74.40;99495.19;2087959;28;46345;-61
2023/04/12 03:27:34;;;;;;;;;1.00;1.00;;;;;13.22;74.36;99506.69;2088082;28;46747;-60
2023/04/12 03:28:35;;;;;;;;;2.00;2.00;;;;;13.23;74.09;99504.91;2087749;28;46400;-61
2023/04/12 03:29:35;;;;;;;;;1.67;1.67;;;;;13.23;74.35;99502.22;2088358;28;46346;-61
2023/04/12 03:30:35;;;;;;;;;2.00;2.00;;;;;13.23;74.47;99505.75;2091419;28;46641;-62
2023/04/12 03:31:36;;;;;;;;;2.00;1.00;;;;;13.24;74.70;99502.16;2093430;28;45594;-60
2023/04/12 03:32:41;;;;;;;;;0.33;0.33;;;;;13.24;74.66;99504.81;2087945;28;46195;-62
2023/04/12 03:33:41;;;;;;;;;0.50;0.50;;;;;13.24;74.24;99495.97;2087901;28;46801;-61
2023/04/12 03:34:41;;;;;;;;;0.00;0.00;;;;;13.25;74.42;99497.69;2087776;28;46564;-61
2023/04/12 03:35:42;;;;;;;;;0.67;0.67;;;;;13.23;74.20;99497.78;2087921;28;46583;-62
2023/04/12 03:36:42;;;;;;;;;0.00;0.00;;;;;13.23;73.77;99502.22;2087985;28;46544;-60
2023/04/12 03:37:43;;;;;;;;;1.00;1.00;;;;;13.22;73.95;99504.03;2087943;28;46665;-60
2023/04/12 03:38:44;;;;;;;;;0.33;0.00;;;;;13.21;73.74;99502.31;2089188;28;46424;-60
2023/04/12 03:39:46;;;;;;;;;1.00;1.00;;;;;13.19;73.71;99501.50;2098843;28;45957;-60
2023/04/12 03:40:46;;;;;;;;;0.00;0.00;;;;;13.17;73.43;99498.03;2097401;28;46925;-60
2023/04/12 03:41:47;;;;;;;;;1.00;1.00;;;;;13.16;73.32;99509.63;2097270;28;46346;-61
2023/04/12 03:42:47;;;;;;;;;0.00;0.00;;;;;13.14;73.45;99502.66;2105595;28;46713;-60
2023/04/12 03:43:48;;;;;;;;;0.00;0.00;;;;;13.10;73.63;99498.44;2097236;28;46551;-60
2023/04/12 03:44:48;;;;;;;;;0.00;0.00;;;;;13.09;73.61;99500.25;2097481;28;45503;-59
2023/04/12 03:45:48;;;;;;;;;0.00;0.00;;;;;13.08;73.53;99495.84;2104450;28;45960;-60
2023/04/12 03:46:49;;;;;;;;;0.00;0.00;;;;;13.07;73.40;99495.91;2100278;28;46631;-59
2023/04/12 03:47:49;;;;;;;;;0.00;0.00;;;;;13.04;73.25;99483.63;2097193;28;46735;-60
2023/04/12 03:48:50;;;;;;;;;0.00;0.00;;;;;13.02;73.45;99488.19;2097118;28;46006;-59
2023/04/12 03:49:54;;;;;;;;;0.25;0.00;;;;;13.03;73.69;99495.22;2097316;28;46903;-60
2023/04/12 03:50:54;;;;;;;;;0.00;0.00;;;;;13.01;73.58;99489.13;2096886;28;47155;-60
2023/04/12 03:51:56;;;;;;;;;0.00;0.00;;;;;13.00;73.31;99492.72;2097542;28;45837;-60
2023/04/12 03:52:56;;;;;;;;;0.00;0.00;;;;;13.01;73.30;99489.13;2099402;28;46869;-61
2023/04/12 03:53:56;;;;;;;;;0.00;0.00;;;;;12.99;73.47;99484.81;2088691;28;46361;-61
2023/04/12 03:54:56;;;;;;;;;0.00;0.00;;;;;12.97;73.33;99482.25;2079898;28;46838;-61
2023/04/12 03:55:57;;;;;;;;;0.00;0.00;;;;;12.96;73.47;99478.72;2063130;28;46723;-61
2023/04/12 03:56:57;;;;;;;;;0.00;0.00;;;;;12.94;73.21;99471.72;2076626;28;45498;-62
2023/04/12 03:57:58;;;;;;;;;0.00;0.00;;;;;12.93;73.55;99475.31;2103007;28;46301;-61
2023/04/12 03:58:58;;;;;;;;;0.00;0.00;;;;;12.91;73.47;99477.22;2096561;28;46661;-60
2023/04/12 03:59:59;;;;;;;;;0.00;0.00;;;;;12.90;73.67;99473.69;2092146;28;46975;-60
2023/04/12 04:01:04;;;;;;;;;0.00;0.00;;;;;12.91;73.58;99480.72;2098230;28;46731;-62
2023/04/12 04:02:05;;;;;;;;;0.00;0.00;;;;;12.91;73.45;99470.06;2097418;28;46200;-60
2023/04/12 04:03:06;;;;;;;;;0.00;0.00;;;;;12.91;73.07;99474.53;2099151;28;46419;-61
2023/04/12 04:04:07;;;;;;;;;0.00;0.00;;;;;12.90;73.55;99472.81;2087453;28;46145;-61
2023/04/12 04:05:08;;;;;;;;;0.00;0.00;;;;;12.91;73.68;99474.53;2089547;28;44953;-60
2023/04/12 04:06:09;;;;;;;;;0.00;0.00;;;;;12.90;73.64;99475.47;2098265;28;46296;-61
2023/04/12 04:07:10;;;;;;;;;0.00;0.00;;;;;12.91;73.69;99477.22;2105538;28;46449;-61
2023/04/12 04:08:10;;;;;;;;;0.00;0.00;;;;;12.91;73.40;99467.41;2099347;28;46863;-61
2023/04/12 04:09:10;;;;;;;;;0.00;0.00;;;;;12.91;73.46;99469.22;2097885;28;45627;-61
2023/04/12 04:10:11;;;;;;;;;0.00;0.00;;;;;12.91;73.51;99472.75;2097337;28;46127;-61
2023/04/12 04:11:11;;;;;;;;;0.00;0.00;;;;;12.91;73.55;99475.41;2096995;28;46409;-60
2023/04/12 04:12:12;;;;;;;;;0.00;0.00;;;;;12.90;73.18;99473.69;2096982;28;46391;-60
2023/04/12 04:13:12;;;;;;;;;0.00;0.00;;;;;12.88;73.01;99470.25;2097400;28;46147;-61
2023/04/12 04:14:12;;;;;;;;;0.00;0.00;;;;;12.87;73.32;99462.34;2098175;28;46524;-61
2023/04/12 04:15:13;;;;;;;;;0.67;0.00;;;;;12.86;73.26;99465.94;2105594;28;46524;-61
2023/04/12 04:16:14;;;;;;;;;0.50;0.00;;;;;12.86;73.04;99464.13;2100453;28;46484;-61
2023/04/12 04:17:14;;;;;;;;;0.00;0.00;;;;;12.86;73.47;99463.28;2090590;28;46632;-60
2023/04/12 04:18:14;;;;;;;;;0.00;0.00;;;;;12.86;73.32;99461.47;2097491;28;45282;-60
2023/04/12 04:19:15;;;;;;;;;0.00;0.00;;;;;12.87;73.26;99455.22;2080296;28;45133;-61
2023/04/12 04:20:17;;;;;;;;;0.00;0.00;;;;;12.89;73.35;99457.78;2087333;28;46365;-60
2023/04/12 04:21:18;;;;;;;;;0.00;0.00;;;;;12.90;73.31;99454.19;2098777;28;46936;-62
2023/04/12 04:22:20;;;;;;;;;0.00;0.00;;;;;12.91;73.42;99454.09;2097118;28;45318;-60
2023/04/12 04:23:22;;;;;;;;;0.00;0.00;;;;;12.93;73.36;99451.34;2096655;28;46580;-60
2023/04/12 04:24:23;;;;;;;;;0.00;0.00;;;;;12.94;73.21;99451.28;2096708;28;46996;-60
2023/04/12 04:25:28;;;;;;;;;0.00;0.00;;;;;12.95;73.24;99450.34;2087944;28;46550;-61
2023/04/12 04:26:37;;;;;;;;;0.00;0.00;;;;;12.97;73.40;99447.63;2088280;28;47171;-62
2023/04/12 04:27:37;;;;;;;;;0.00;0.00;;;;;12.98;73.23;99446.69;2087965;28;46608;-61
2023/04/12 04:28:41;;;;;;;;;0.00;0.00;;;;;12.97;73.21;99452.94;2087622;28;46504;-61
2023/04/12 04:29:44;;;;;;;;;0.00;0.00;;;;;12.98;73.32;99451.13;2088245;28;46293;-62
2023/04/12 04:30:45;;;;;;;;;0.00;0.00;;;;;12.96;72.81;99445.91;2093774;28;45950;-60
2023/04/12 04:31:45;;;;;;;;;0.00;0.00;;;;;12.94;72.72;99453.06;2102616;28;46262;-62
2023/04/12 04:32:47;;;;;;;;;0.00;0.00;;;;;12.93;72.65;99454.88;2104682;28;46400;-61
2023/04/12 04:33:47;;;;;;;;;0.00;0.00;;;;;12.92;72.75;99450.50;2099146;28;46694;-59
2023/04/12 04:34:47;;;;;;;;;0.00;0.00;;;;;12.91;72.87;99454.09;2097226;28;45923;-63
2023/04/12 04:35:47;;;;;;;;;0.00;0.00;;;;;12.90;72.97;99455.03;2096836;28;46855;-60
2023/04/12 04:36:48;;;;;;;;;0.00;0.00;;;;;12.91;73.05;99439.94;2096817;28;46613;-62
2023/04/12 04:37:50;;;;;;;;;0.00;0.00;;;;;12.90;72.98;99452.38;2096797;28;46600;-60
2023/04/12 04:38:50;;;;;;;;;0.00;0.00;;;;;12.90;72.71;99449.72;2099469;28;47014;-61
2023/04/12 04:39:51;;;;;;;;;0.00;0.00;;;;;12.89;72.88;99448.00;2095218;28;46643;-59
2023/04/12 04:40:54;;;;;;;;;0.00;0.00;;;;;12.90;72.53;99454.19;2090255;28;46764;-59
2023/04/12 04:41:54;;;;;;;;;0.00;0.00;;;;;12.89;72.83;99463.97;2089017;28;46533;-59
2023/04/12 04:42:54;;;;;;;;;0.00;0.00;;;;;12.88;72.97;99450.75;2095407;28;46162;-60
2023/04/12 04:43:55;;;;;;;;;0.00;0.00;;;;;12.88;72.84;99459.59;2096663;28;46442;-60
2023/04/12 04:45:02;;;;;;;;;0.00;0.00;;;;;12.86;72.74;99453.50;2097204;28;46125;-61
2023/04/12 04:46:03;;;;;;;;;0.00;0.00;;;;;12.86;72.73;99457.97;2093688;28;46740;-61
2023/04/12 04:47:03;;;;;;;;;0.00;0.00;;;;;12.85;72.88;99450.91;2098533;28;46499;-60
2023/04/12 04:48:04;;;;;;;;;0.00;0.00;;;;;12.83;72.78;99451.00;2096823;28;46662;-61
2023/04/12 04:49:05;;;;;;;;;0.00;0.00;;;;;12.82;72.89;99459.88;2096502;28;46807;-61
2023/04/12 04:50:06;;;;;;;;;0.00;0.00;;;;;12.82;72.80;99456.38;2096849;28;46896;-61
2023/04/12 04:51:06;;;;;;;;;1.25;0.00;;;;;12.82;73.01;99454.56;2097080;28;46886;-60
2023/04/12 04:52:07;;;;;;;;;0.00;0.00;;;;;12.83;73.03;99463.41;2096916;28;46595;-61
2023/04/12 04:53:08;;;;;;;;;0.00;0.00;;;;;12.85;73.21;99456.22;2101300;28;46348;-60
2023/04/12 04:54:08;;;;;;;;;0.00;0.00;;;;;12.86;73.06;99456.16;2096761;28;46585;-60